Time;durP1;ratioP1;P1;durP2;ratioP2;P2;SDS_P1;SDS_P2;PMS_P1;PMS_P2;Temp;Humidity;BMP_temperature;BMP_pressure;BME280_temperature;BME280_humidity;BME280_pressure;Samples;Min_cycle;Max_cycle;Signal;HPM_P1;HPM_P2
2023/01/06 00:03:51;;;;;;;11.02;6.28;;;;;;;;;;10338868;28;20477;-56
2023/01/06 00:08:56;;;;;;;10.15;7.03;;;;;;;;;;10326463;28;20035;-55
2023/01/06 00:13:58;;;;;;;11.90;6.80;;;;;;;;;;10322266;28;20273;-56
2023/01/06 00:18:59;;;;;;;10.40;6.50;;;;;;;;;;10323166;28;20029;-56
2023/01/06 00:24:00;;;;;;;15.30;7.32;;;;;;;;;;10330214;28;20030;-55
2023/01/06 00:29:00;;;;;;;12.70;7.03;;;;;;;;;;10323170;28;20042;-48
2023/01/06 00:34:01;;;;;;;13.75;8.05;;;;;;;;;;10327124;28;20474;-54
2023/01/06 00:39:02;;;;;;;15.13;8.38;;;;;;;;;;10324310;28;20030;-53
2023/01/06 00:44:02;;;;;;;13.55;8.73;;;;;;;;;;10326139;28;20041;-57
2023/01/06 00:49:04;;;;;;;14.65;9.85;;;;;;;;;;10326638;28;20107;-51
2023/01/06 00:54:11;;;;;;;14.60;9.48;;;;;;;;;;10325512;28;20386;-54
2023/01/06 00:59:14;;;;;;;15.38;10.23;;;;;;;;;;10316241;28;20038;-56
2023/01/06 01:04:16;;;;;;;18.88;10.60;;;;;;;;;;10325413;28;20038;-55
2023/01/06 01:09:25;;;;;;;14.52;10.00;;;;;;;;;;10326463;28;20536;-56
2023/01/06 01:14:26;;;;;;;17.27;10.60;;;;;;;;;;10315420;28;20112;-55
2023/01/06 01:19:27;;;;;;;14.52;10.30;;;;;;;;;;10318446;28;20030;-56
2023/01/06 01:24:28;;;;;;;14.02;9.85;;;;;;;;;;10319487;28;20038;-56
2023/01/06 01:29:29;;;;;;;13.07;10.10;;;;;;;;;;10328936;28;20038;-53
2023/01/06 01:34:30;;;;;;;13.65;10.27;;;;;;;;;;10328980;28;20034;-47
2023/01/06 01:39:30;;;;;;;15.65;10.32;;;;;;;;;;10334788;28;20041;-49
2023/01/06 01:44:53;;;;;;;13.65;9.63;;;;;;;;;;10331150;28;20093;-48
2023/01/06 01:50:19;;;;;;;13.25;10.60;;;;;;;;;;10331179;28;20029;-46
2023/01/06 01:55:20;;;;;;;14.45;10.07;;;;;;;;;;10315322;28;20478;-48
2023/01/06 02:00:21;;;;;;;16.58;10.05;;;;;;;;;;10333866;28;20026;-48
2023/01/06 02:05:26;;;;;;;16.20;9.50;;;;;;;;;;10350450;28;20026;-46
2023/01/06 02:10:26;;;;;;;13.15;9.45;;;;;;;;;;10346549;28;20342;-49
2023/01/06 02:15:31;;;;;;;14.65;9.98;;;;;;;;;;10345797;28;20238;-48
2023/01/06 02:21:04;;;;;;;13.20;9.32;;;;;;;;;;10356276;28;20393;-51
2023/01/06 02:27:06;;;;;;;14.75;9.32;;;;;;;;;;10325563;28;20035;-46
2023/01/06 02:32:44;;;;;;;13.85;9.07;;;;;;;;;;10298097;28;20046;-47
2023/01/06 02:38:35;;;;;;;12.80;9.18;;;;;;;;;;10340105;28;20097;-50
2023/01/06 02:43:41;;;;;;;13.48;9.13;;;;;;;;;;10327394;28;20026;-50
2023/01/06 02:49:14;;;;;;;11.77;8.23;;;;;;;;;;10345462;28;20386;-55
2023/01/06 02:54:41;;;;;;;14.23;8.80;;;;;;;;;;10368826;28;20049;-49
2023/01/06 03:00:28;;;;;;;12.23;8.52;;;;;;;;;;10340818;28;20045;-53
2023/01/06 03:05:31;;;;;;;11.65;8.02;;;;;;;;;;10341342;28;20054;-45
2023/01/06 03:10:32;;;;;;;10.35;7.75;;;;;;;;;;10359923;28;20038;-46
2023/01/06 03:15:34;;;;;;;10.55;7.63;;;;;;;;;;10373554;28;20054;-48
2023/01/06 03:20:35;;;;;;;10.65;8.18;;;;;;;;;;10339102;28;20715;-48
2023/01/06 03:25:37;;;;;;;12.27;8.43;;;;;;;;;;10318297;28;20053;-49
2023/01/06 03:30:58;;;;;;;11.88;7.88;;;;;;;;;;10327384;28;20121;-47
2023/01/06 03:36:39;;;;;;;11.73;7.90;;;;;;;;;;10327006;28;20042;-53
2023/01/06 03:47:22;;;;;;;9.75;7.32;;;;;;;;;;10339687;28;20038;-51
2023/01/06 03:52:29;;;;;;;11.98;7.43;;;;;;;;;;10337185;28;20045;-46
2023/01/06 03:57:35;;;;;;;10.00;7.45;;;;;;;;;;10339267;28;20049;-48
2023/01/06 04:02:38;;;;;;;9.63;7.38;;;;;;;;;;10324373;28;20036;-47
2023/01/06 04:07:40;;;;;;;8.35;6.72;;;;;;;;;;10347081;28;20358;-46
2023/01/06 04:12:41;;;;;;;9.18;7.18;;;;;;;;;;10327247;28;20049;-49
2023/01/06 04:17:43;;;;;;;10.90;7.38;;;;;;;;;;10350883;28;20033;-52
2023/01/06 04:22:44;;;;;;;10.23;7.05;;;;;;;;;;10331559;28;20086;-55
2023/01/06 04:27:44;;;;;;;9.93;7.03;;;;;;;;;;10341326;28;20057;-51
2023/01/06 04:32:45;;;;;;;8.40;7.07;;;;;;;;;;10327577;28;20038;-52
2023/01/06 04:37:46;;;;;;;10.05;7.30;;;;;;;;;;10334897;28;20026;-52
2023/01/06 04:43:04;;;;;;;9.80;6.90;;;;;;;;;;10340936;28;20053;-51
2023/01/06 04:48:05;;;;;;;;;;;;;;;;;;10333186;28;20109;-46
2023/01/06 04:53:08;;;;;;;10.40;6.55;;;;;;;;;;10352290;28;19920;-47
2023/01/06 04:58:08;;;;;;;8.35;7.05;;;;;;;;;;10345282;28;20030;-52
2023/01/06 05:03:09;;;;;;;8.77;6.78;;;;;;;;;;10335288;28;20498;-54
2023/01/06 05:08:09;;;;;;;7.93;6.38;;;;;;;;;;10333711;28;20458;-52
2023/01/06 05:13:10;;;;;;;12.00;6.30;;;;;;;;;;10332834;28;20038;-57
2023/01/06 05:18:11;;;;;;;8.52;6.43;;;;;;;;;;10333740;28;20027;-55
2023/01/06 05:23:11;;;;;;;8.20;6.20;;;;;;;;;;10341565;28;20053;-54
2023/01/06 05:28:12;;;;;;;7.28;6.18;;;;;;;;;;10356819;28;20058;-55
2023/01/06 05:33:13;;;;;;;8.48;6.22;;;;;;;;;;10334225;28;20034;-54
2023/01/06 05:38:14;;;;;;;7.93;5.72;;;;;;;;;;10340673;28;20174;-51
2023/01/06 05:43:14;;;;;;;9.80;5.63;;;;;;;;;;10346638;28;20030;-49
2023/01/06 05:48:15;;;;;;;10.73;5.82;;;;;;;;;;10352336;28;20037;-47
2023/01/06 05:53:15;;;;;;;6.70;5.80;;;;;;;;;;10358692;28;20037;-49
2023/01/06 05:58:16;;;;;;;7.63;5.72;;;;;;;;;;10352499;28;20026;-54
2023/01/06 06:03:16;;;;;;;7.22;5.65;;;;;;;;;;10330574;28;20258;-51
2023/01/06 06:08:17;;;;;;;7.93;6.10;;;;;;;;;;10341387;28;20026;-50
2023/01/06 06:13:17;;;;;;;8.25;5.18;;;;;;;;;;10344839;28;20046;-49
2023/01/06 06:18:18;;;;;;;7.32;5.80;;;;;;;;;;10333205;28;20033;-49
2023/01/06 06:23:19;;;;;;;7.28;5.28;;;;;;;;;;10319919;28;20042;-51
2023/01/06 06:28:20;;;;;;;7.03;5.43;;;;;;;;;;10334820;28;20046;-55
2023/01/06 06:33:20;;;;;;;6.22;5.30;;;;;;;;;;10340775;28;20042;-54
2023/01/06 06:38:21;;;;;;;7.75;5.72;;;;;;;;;;10347530;28;20242;-52
2023/01/06 06:43:22;;;;;;;6.22;4.78;;;;;;;;;;10352685;28;20113;-54
2023/01/06 06:48:22;;;;;;;7.03;5.13;;;;;;;;;;10359163;28;20030;-51
2023/01/06 06:53:23;;;;;;;6.90;4.97;;;;;;;;;;10362690;28;20041;-51
2023/01/06 06:58:24;;;;;;;6.88;5.30;;;;;;;;;;10350304;28;20160;-50
2023/01/06 07:03:25;;;;;;;7.97;5.47;;;;;;;;;;10338989;28;20093;-49
2023/01/06 07:08:26;;;;;;;6.35;4.95;;;;;;;;;;10345272;28;20018;-54
2023/01/06 07:13:27;;;;;;;6.43;5.00;;;;;;;;;;10343992;28;20120;-52
2023/01/06 07:18:27;;;;;;;5.88;4.93;;;;;;;;;;10357446;28;20026;-50
2023/01/06 07:23:29;;;;;;;5.63;5.00;;;;;;;;;;10341284;28;20034;-51
2023/01/06 07:28:31;;;;;;;6.13;4.93;;;;;;;;;;10352205;28;20108;-53
2023/01/06 07:33:32;;;;;;;5.03;4.53;;;;;;;;;;10329008;28;20034;-52
2023/01/06 07:38:33;;;;;;;5.43;4.63;;;;;;;;;;10338445;28;20022;-48
2023/01/06 07:43:33;;;;;;;5.78;4.65;;;;;;;;;;10342489;28;20029;-47
2023/01/06 07:48:34;;;;;;;5.28;4.57;;;;;;;;;;10347655;28;20025;-46
2023/01/06 07:53:35;;;;;;;6.80;4.78;;;;;;;;;;10337405;28;20041;-46
2023/01/06 07:58:35;;;;;;;5.93;4.32;;;;;;;;;;10342851;28;20038;-53
2023/01/06 08:03:36;;;;;;;7.00;5.25;;;;;;;;;;10331379;28;20026;-54
2023/01/06 08:08:39;;;;;;;7.20;5.15;;;;;;;;;;10326388;28;20390;-52
2023/01/06 08:13:39;;;;;;;4.82;4.30;;;;;;;;;;10324265;28;20070;-49
2023/01/06 08:18:40;;;;;;;5.53;4.68;;;;;;;;;;10336745;28;20108;-56
2023/01/06 08:23:41;;;;;;;6.10;5.20;;;;;;;;;;10332191;28;20116;-47
2023/01/06 08:28:44;;;;;;;7.32;5.40;;;;;;;;;;10319797;28;20060;-55
2023/01/06 08:33:46;;;;;;;6.00;5.18;;;;;;;;;;10329485;28;20037;-52
2023/01/06 08:38:47;;;;;;;7.07;5.40;;;;;;;;;;10338155;28;20505;-53
2023/01/06 08:43:48;;;;;;;8.52;5.55;;;;;;;;;;10333946;28;20034;-56
2023/01/06 08:48:49;;;;;;;9.07;5.40;;;;;;;;;;10335702;28;20022;-50
2023/01/06 08:53:51;;;;;;;6.72;5.15;;;;;;;;;;10342731;28;20358;-47
2023/01/06 08:58:57;;;;;;;13.07;5.22;;;;;;;;;;10340631;28;20470;-52
2023/01/06 09:04:00;;;;;;;18.58;5.88;;;;;;;;;;10338328;28;20026;-46
2023/01/06 09:09:03;;;;;;;14.02;5.70;;;;;;;;;;10349006;28;20037;-47
2023/01/06 09:14:04;;;;;;;12.25;5.50;;;;;;;;;;10339497;28;20277;-48
2023/01/06 09:19:04;;;;;;;12.00;5.45;;;;;;;;;;10325146;28;20266;-53
2023/01/06 09:24:05;;;;;;;15.93;5.68;;;;;;;;;;10326917;28;20049;-57
2023/01/06 09:29:06;;;;;;;14.88;5.10;;;;;;;;;;10328880;28;20042;-53
2023/01/06 09:34:07;;;;;;;16.40;5.13;;;;;;;;;;10347614;28;20038;-55
2023/01/06 09:39:07;;;;;;;15.52;4.70;;;;;;;;;;10334403;28;20269;-53
2023/01/06 09:44:35;;;;;;;13.73;5.18;;;;;;;;;;10344780;28;20041;-56
2023/01/06 09:49:45;;;;;;;11.82;4.80;;;;;;;;;;10341126;28;20025;-54
2023/01/06 09:55:01;;;;;;;9.23;5.50;;;;;;;;;;10354870;28;20495;-50
2023/01/06 10:00:23;;;;;;;7.97;5.28;;;;;;;;;;10344337;28;20118;-47
2023/01/06 10:05:48;;;;;;;10.07;4.90;;;;;;;;;;10357189;28;20030;-48
2023/01/06 10:11:20;;;;;;;8.07;5.55;;;;;;;;;;10347264;28;20034;-48
2023/01/06 10:17:00;;;;;;;8.60;5.50;;;;;;;;;;10371002;28;20038;-48
2023/01/06 10:22:28;;;;;;;9.32;5.20;;;;;;;;;;10341888;28;20061;-49
2023/01/06 10:27:52;;;;;;;18.60;6.13;;;;;;;;;;10330428;28;20148;-47
2023/01/06 10:32:52;;;;;;;9.07;5.05;;;;;;;;;;10331045;28;20462;-48
2023/01/06 10:37:54;;;;;;;11.27;5.68;;;;;;;;;;10336809;28;20026;-48
2023/01/06 10:43:08;;;;;;;14.05;5.55;;;;;;;;;;10344424;28;20022;-48
2023/01/06 10:48:16;;;;;;;12.65;5.55;;;;;;;;;;10347351;28;20030;-47
2023/01/06 10:53:17;;;;;;;8.27;5.00;;;;;;;;;;10352999;28;20084;-49
2023/01/06 10:58:39;;;;;;;7.70;5.32;;;;;;;;;;10345033;28;20026;-56
2023/01/06 11:03:41;;;;;;;9.18;5.88;;;;;;;;;;10332206;28;20250;-48
2023/01/06 11:08:42;;;;;;;10.27;6.03;;;;;;;;;;10334726;28;20038;-47
2023/01/06 11:13:50;;;;;;;11.30;6.15;;;;;;;;;;10343959;28;20022;-50
2023/01/06 11:18:58;;;;;;;9.87;6.03;;;;;;;;;;10361473;28;20655;-51
2023/01/06 11:24:15;;;;;;;6.57;5.38;;;;;;;;;;10327256;28;20026;-51
2023/01/06 11:29:34;;;;;;;8.45;6.07;;;;;;;;;;10327795;28;20050;-52
2023/01/06 11:34:34;;;;;;;7.75;6.20;;;;;;;;;;10328277;28;20026;-51
2023/01/06 11:39:36;;;;;;;10.20;5.80;;;;;;;;;;10326783;28;20034;-55
2023/01/06 11:44:39;;;;;;;7.43;5.53;;;;;;;;;;10342516;28;20485;-50
2023/01/06 11:49:56;;;;;;;8.82;6.47;;;;;;;;;;10320256;28;20026;-53
2023/01/06 11:55:07;;;;;;;8.98;6.43;;;;;;;;;;10331497;28;20034;-48
2023/01/06 12:01:03;;;;;;;10.98;6.45;;;;;;;;;;10351638;28;20031;-48
2023/01/06 12:06:13;;;;;;;10.02;6.50;;;;;;;;;;10350130;28;20022;-52
2023/01/06 12:11:28;;;;;;;9.95;6.43;;;;;;;;;;10342648;28;20532;-47
2023/01/06 12:16:39;;;;;;;9.93;6.63;;;;;;;;;;10355947;28;20064;-47
2023/01/06 12:21:41;;;;;;;8.18;6.30;;;;;;;;;;10330084;28;20066;-48
2023/01/06 12:26:43;;;;;;;10.20;6.18;;;;;;;;;;10338847;28;20046;-47
2023/01/06 12:32:07;;;;;;;9.70;6.38;;;;;;;;;;10353174;28;20308;-51
2023/01/06 12:37:31;;;;;;;9.18;6.43;;;;;;;;;;10343040;28;20030;-53
2023/01/06 12:42:53;;;;;;;10.02;5.95;;;;;;;;;;10356394;28;20018;-52
2023/01/06 12:47:56;;;;;;;8.07;5.85;;;;;;;;;;10333350;28;20027;-53
2023/01/06 12:53:12;;;;;;;7.85;5.63;;;;;;;;;;10326490;28;20026;-54
2023/01/06 12:58:58;;;;;;;8.15;5.68;;;;;;;;;;10338477;28;20026;-55
2023/01/06 13:04:55;;;;;;;8.15;5.53;;;;;;;;;;10321952;28;20454;-52
2023/01/06 13:10:17;;;;;;;7.30;5.78;;;;;;;;;;10300271;28;20041;-55
2023/01/06 13:15:28;;;;;;;7.10;5.63;;;;;;;;;;10340577;28;20489;-53
2023/01/06 13:20:54;;;;;;;6.45;5.35;;;;;;;;;;10314062;28;20023;-54
2023/01/06 13:26:21;;;;;;;8.07;5.90;;;;;;;;;;10326174;28;20057;-53
2023/01/06 13:31:28;;;;;;;8.88;5.63;;;;;;;;;;10330609;28;20038;-54
2023/01/06 13:37:05;;;;;;;8.45;5.50;;;;;;;;;;10336810;28;20474;-54
2023/01/06 13:42:10;;;;;;;10.25;5.95;;;;;;;;;;10337609;28;20389;-54
2023/01/06 13:47:18;;;;;;;6.38;5.35;;;;;;;;;;10334935;28;20042;-55
2023/01/06 13:52:24;;;;;;;11.70;5.70;;;;;;;;;;10329359;28;20521;-51
2023/01/06 13:57:38;;;;;;;8.95;5.20;;;;;;;;;;10334835;28;20034;-46
2023/01/06 14:02:39;;;;;;;7.68;4.90;;;;;;;;;;10334104;28;20018;-50
2023/01/06 14:07:58;;;;;;;8.45;5.75;;;;;;;;;;10329715;28;20056;-47
2023/01/06 14:13:01;;;;;;;6.78;5.72;;;;;;;;;;10348360;28;20348;-46
2023/01/06 14:18:03;;;;;;;11.05;5.50;;;;;;;;;;10339237;28;20477;-47
2023/01/06 14:23:17;;;;;;;9.73;5.50;;;;;;;;;;10332602;28;20025;-50
2023/01/06 14:28:20;;;;;;;7.82;5.57;;;;;;;;;;10339748;28;20058;-49
2023/01/06 14:33:36;;;;;;;7.68;6.05;;;;;;;;;;10325444;28;20437;-49
2023/01/06 14:39:09;;;;;;;8.48;6.05;;;;;;;;;;10336609;28;20454;-47
2023/01/06 14:44:15;;;;;;;15.77;6.95;;;;;;;;;;10342964;28;20026;-47
2023/01/06 14:49:31;;;;;;;18.50;6.72;;;;;;;;;;10346341;28;20022;-48
2023/01/06 14:54:42;;;;;;;25.35;7.03;;;;;;;;;;10323599;28;20033;-56
2023/01/06 14:59:43;;;;;;;24.17;7.47;;;;;;;;;;10335881;28;20034;-46
2023/01/06 15:04:44;;;;;;;18.88;7.10;;;;;;;;;;10331861;28;20030;-52
2023/01/06 15:09:47;;;;;;;12.55;7.28;;;;;;;;;;10327933;28;20022;-49
2023/01/06 15:14:47;;;;;;;16.63;7.65;;;;;;;;;;10329771;28;20092;-56
2023/01/06 15:19:50;;;;;;;15.32;7.47;;;;;;;;;;10330453;28;20454;-55
2023/01/06 15:24:51;;;;;;;12.18;6.85;;;;;;;;;;10344192;28;20030;-50
2023/01/06 15:29:55;;;;;;;13.15;7.85;;;;;;;;;;10326640;28;20038;-55
2023/01/06 15:34:58;;;;;;;11.48;7.57;;;;;;;;;;10327941;28;20064;-47
2023/01/06 15:39:58;;;;;;;13.43;8.38;;;;;;;;;;10337570;28;20113;-53
2023/01/06 15:45:01;;;;;;;10.23;7.13;;;;;;;;;;10336364;28;20022;-52
2023/01/06 15:50:06;;;;;;;11.13;7.43;;;;;;;;;;10329986;28;20033;-54
2023/01/06 15:55:39;;;;;;;13.57;8.00;;;;;;;;;;10355360;28;20378;-52
2023/01/06 16:00:50;;;;;;;14.13;7.85;;;;;;;;;;10344678;28;20030;-47
2023/01/06 16:06:02;;;;;;;13.52;7.60;;;;;;;;;;10337068;28;20117;-55
2023/01/06 16:16:45;;;;;;;11.48;7.65;;;;;;;;;;10326314;28;20034;-53
2023/01/06 16:21:52;;;;;;;11.68;8.10;;;;;;;;;;10313959;28;20034;-49
2023/01/06 16:27:00;;;;;;;15.10;8.02;;;;;;;;;;10318896;28;20448;-49
2023/01/06 16:32:39;;;;;;;16.10;8.05;;;;;;;;;;10318838;28;20056;-48
2023/01/06 16:37:40;;;;;;;13.53;7.70;;;;;;;;;;10292337;28;20394;-49
2023/01/06 16:42:41;;;;;;;12.05;7.50;;;;;;;;;;10325488;28;20470;-47
2023/01/06 16:47:43;;;;;;;18.95;9.70;;;;;;;;;;10338268;28;20080;-47
2023/01/06 16:53:08;;;;;;;18.15;9.77;;;;;;;;;;10338784;28;20138;-47
2023/01/06 16:58:27;;;;;;;19.60;9.63;;;;;;;;;;10330745;28;20095;-50
2023/01/06 17:03:35;;;;;;;19.90;10.50;;;;;;;;;;10339131;28;20500;-48
2023/01/06 17:08:37;;;;;;;17.10;9.40;;;;;;;;;;10336541;28;20398;-48
2023/01/06 17:13:44;;;;;;;27.60;11.35;;;;;;;;;;10330223;28;20037;-52
2023/01/06 17:19:21;;;;;;;23.38;10.68;;;;;;;;;;10349014;28;20600;-48
2023/01/06 17:24:24;;;;;;;17.73;9.23;;;;;;;;;;10336555;28;20030;-51
2023/01/06 17:29:34;;;;;;;17.48;9.82;;;;;;;;;;10320976;28;20082;-50
2023/01/06 17:34:35;;;;;;;21.70;10.45;;;;;;;;;;10330618;28;20182;-51
2023/01/06 17:39:39;;;;;;;16.40;9.60;;;;;;;;;;10323696;28;20069;-48
2023/01/06 17:44:52;;;;;;;17.70;10.07;;;;;;;;;;10346556;28;20057;-49
2023/01/06 17:49:59;;;;;;;29.50;10.25;;;;;;;;;;10333696;28;20041;-48
2023/01/06 17:55:43;;;;;;;21.45;10.05;;;;;;;;;;10342682;28;20022;-50
2023/01/06 18:00:44;;;;;;;16.60;9.90;;;;;;;;;;10336798;28;20394;-49
2023/01/06 18:05:48;;;;;;;15.38;10.27;;;;;;;;;;10343212;28;20393;-48
2023/01/06 18:11:28;;;;;;;18.92;9.88;;;;;;;;;;10349398;28;20482;-50
2023/01/06 18:16:34;;;;;;;15.13;9.35;;;;;;;;;;10352997;28;20112;-48
2023/01/06 18:21:38;;;;;;;16.30;10.57;;;;;;;;;;10341459;28;20546;-47
2023/01/06 18:26:46;;;;;;;16.42;10.43;;;;;;;;;;10350000;28;20041;-48
2023/01/06 18:31:49;;;;;;;;;;;;;;;;;;10370652;28;20436;-47
2023/01/06 18:36:50;;;;;;;18.13;10.20;;;;;;;;;;10354558;28;19928;-48
2023/01/06 18:42:28;;;;;;;18.25;11.27;;;;;;;;;;10351028;28;20026;-48
2023/01/06 18:47:30;;;;;;;17.67;9.90;;;;;;;;;;10341638;28;20496;-47
2023/01/06 18:53:00;;;;;;;16.35;11.07;;;;;;;;;;10345222;28;20106;-48
2023/01/06 18:58:12;;;;;;;17.67;10.25;;;;;;;;;;10343224;28;20499;-48
2023/01/06 19:03:18;;;;;;;21.38;10.60;;;;;;;;;;10337289;28;20477;-49
2023/01/06 19:08:30;;;;;;;21.42;11.43;;;;;;;;;;10342341;28;20026;-49
2023/01/06 19:13:31;;;;;;;19.38;11.20;;;;;;;;;;10352929;28;20032;-48
2023/01/06 19:18:33;;;;;;;17.00;10.90;;;;;;;;;;10353503;28;20034;-48
2023/01/06 19:23:33;;;;;;;16.20;10.88;;;;;;;;;;10328032;28;20403;-50
2023/01/06 19:28:35;;;;;;;17.77;10.45;;;;;;;;;;10328327;28;20057;-48
2023/01/06 19:34:02;;;;;;;17.42;10.52;;;;;;;;;;10328830;28;20117;-48
2023/01/06 19:39:23;;;;;;;15.38;10.38;;;;;;;;;;10329308;28;20077;-50
2023/01/06 19:44:32;;;;;;;15.25;10.52;;;;;;;;;;10328638;28;20022;-49
2023/01/06 19:49:40;;;;;;;20.38;11.85;;;;;;;;;;10328313;28;20026;-50
2023/01/06 19:54:41;;;;;;;17.98;11.77;;;;;;;;;;10333511;28;20555;-50
2023/01/06 19:59:41;;;;;;;22.73;11.77;;;;;;;;;;10337879;28;20030;-52
2023/01/06 20:04:42;;;;;;;16.23;11.15;;;;;;;;;;10328526;28;20025;-55
2023/01/06 20:09:43;;;;;;;20.33;11.55;;;;;;;;;;10328029;28;20018;-53
2023/01/06 20:14:43;;;;;;;16.35;10.77;;;;;;;;;;10326754;28;20038;-54
2023/01/06 20:19:44;;;;;;;18.00;10.95;;;;;;;;;;10326675;28;20065;-55
2023/01/06 20:24:44;;;;;;;15.93;11.25;;;;;;;;;;10316903;28;20038;-53
2023/01/06 20:29:45;;;;;;;17.30;11.38;;;;;;;;;;10327456;28;20050;-52
2023/01/06 20:34:45;;;;;;;18.20;11.30;;;;;;;;;;10322813;28;20035;-50
2023/01/06 20:39:46;;;;;;;16.15;10.95;;;;;;;;;;10333259;28;20034;-52
2023/01/06 20:44:46;;;;;;;16.98;11.38;;;;;;;;;;10325838;28;20112;-55
2023/01/06 20:49:47;;;;;;;16.58;11.30;;;;;;;;;;10326606;28;20049;-54
2023/01/06 20:54:48;;;;;;;20.13;11.65;;;;;;;;;;10325020;28;20088;-53
2023/01/06 20:59:48;;;;;;;23.33;11.18;;;;;;;;;;10337701;28;20041;-55
2023/01/06 21:04:49;;;;;;;16.60;10.88;;;;;;;;;;10324731;28;20470;-54
2023/01/06 21:09:49;;;;;;;17.25;10.98;;;;;;;;;;10323735;28;20030;-56
2023/01/06 21:14:50;;;;;;;15.10;9.85;;;;;;;;;;10337252;28;20037;-48
2023/01/06 21:19:51;;;;;;;19.75;11.32;;;;;;;;;;10345373;28;20489;-52
2023/01/06 21:24:52;;;;;;;14.75;9.48;;;;;;;;;;10319476;28;20030;-50
2023/01/06 21:29:53;;;;;;;14.20;9.65;;;;;;;;;;10322458;28;20101;-50
2023/01/06 21:34:53;;;;;;;13.90;9.68;;;;;;;;;;10347814;28;20108;-49
2023/01/06 21:39:54;;;;;;;15.48;9.95;;;;;;;;;;10324997;28;20418;-48
2023/01/06 21:44:55;;;;;;;15.30;9.85;;;;;;;;;;10316421;28;20061;-55
2023/01/06 21:49:56;;;;;;;15.63;9.90;;;;;;;;;;10315233;28;20489;-56
2023/01/06 21:54:57;;;;;;;16.83;10.05;;;;;;;;;;10323019;28;20532;-56
2023/01/06 21:59:58;;;;;;;14.68;10.35;;;;;;;;;;10325697;28;20070;-51
2023/01/06 22:04:59;;;;;;;11.93;9.15;;;;;;;;;;10321371;28;20113;-54
2023/01/06 22:10:00;;;;;;;15.68;9.45;;;;;;;;;;10323545;28;20473;-53
2023/01/06 22:15:02;;;;;;;12.05;9.48;;;;;;;;;;10340512;28;20050;-53
2023/01/06 22:20:03;;;;;;;14.32;9.68;;;;;;;;;;10331746;28;20022;-52
2023/01/06 22:25:05;;;;;;;12.43;8.20;;;;;;;;;;10330948;28;20058;-54
2023/01/06 22:30:06;;;;;;;17.83;9.73;;;;;;;;;;10332871;28;20095;-53
2023/01/06 22:35:07;;;;;;;12.90;9.18;;;;;;;;;;10337492;28;20089;-53
2023/01/06 22:40:10;;;;;;;17.67;9.30;;;;;;;;;;10328892;28;20026;-54
2023/01/06 22:45:12;;;;;;;13.40;8.63;;;;;;;;;;10340980;28;20030;-47
2023/01/06 22:50:12;;;;;;;14.20;8.57;;;;;;;;;;10353547;28;20458;-49
2023/01/06 22:55:13;;;;;;;12.88;8.32;;;;;;;;;;10337069;28;20030;-48
2023/01/06 23:00:17;;;;;;;13.63;8.85;;;;;;;;;;10330124;28;20030;-49
2023/01/06 23:05:17;;;;;;;11.70;8.40;;;;;;;;;;10345428;28;20172;-48
2023/01/06 23:10:18;;;;;;;12.40;8.55;;;;;;;;;;10346841;28;20088;-48
2023/01/06 23:15:18;;;;;;;10.73;8.07;;;;;;;;;;10328841;28;20026;-48
2023/01/06 23:20:19;;;;;;;12.38;8.93;;;;;;;;;;10357766;28;20031;-49
2023/01/06 23:25:19;;;;;;;11.98;7.85;;;;;;;;;;10318290;28;20038;-49
2023/01/06 23:30:20;;;;;;;10.90;8.20;;;;;;;;;;10329264;28;20031;-49
2023/01/06 23:35:20;;;;;;;11.73;7.95;;;;;;;;;;10329413;28;20496;-50
2023/01/06 23:40:21;;;;;;;11.25;8.00;;;;;;;;;;10329421;28;20509;-51
2023/01/06 23:45:22;;;;;;;9.98;8.00;;;;;;;;;;10328993;28;20038;-52
2023/01/06 23:50:22;;;;;;;10.52;7.60;;;;;;;;;;10329474;28;20022;-52
2023/01/06 23:55:23;;;;;;;13.35;8.00;;;;;;;;;;10337884;28;20048;-50
